Terminal Aerodrome Forecast
Issued by NWS Billings, MT

Home | Current Version | Previous Version | Text Only | Print | Product List | Glossary Off
Versions: 1 2 3 4 5 6 7 8 9 10 11 12 13 14 15 16 17 18 19 20 21 22 23 24 25 26 27

000
FTUS45 KBYZ 210537
TAFMLS
TAF
KMLS 210537Z 2106/2206 36007KT P6SM SCT100
     FM211200 08006KT P6SM VCSH BKN100
     FM211800 10005KT P6SM -SHRA SCT080 BKN100
     FM212100 30015G25KT P6SM VCTS SCT060CB BKN080=

USA.gov is the U.S. government's official web portal to all federal, state and local government web resources and services.